Time;durP1;ratioP1;P1;durP2;ratioP2;P2;SDS_P1;SDS_P2;PMS_P1;PMS_P2;Temp;Humidity;BMP_temperature;BMP_pressure;BME280_temperature;BME280_humidity;BME280_pressure;Samples;Min_cycle;Max_cycle;Signal;HPM_P1;HPM_P2
2023/08/06 00:00:38;;;;;;;10.17;8.93;;;14.20;99.90;;;;;;5052888;28;20451;-59
2023/08/06 00:03:06;;;;;;;13.23;9.30;;;14.20;99.90;;;;;;5052964;28;20937;-59
2023/08/06 00:05:34;;;;;;;11.03;8.70;;;14.20;99.90;;;;;;5053185;28;20964;-59
2023/08/06 00:08:00;;;;;;;10.00;8.80;;;14.20;99.90;;;;;;5052596;28;20462;-60
2023/08/06 00:10:27;;;;;;;8.87;7.13;;;14.30;99.90;;;;;;5052954;28;20822;-59
2023/08/06 00:12:54;;;;;;;8.20;7.23;;;14.30;99.90;;;;;;5052715;28;20440;-60
2023/08/06 00:15:21;;;;;;;8.93;6.87;;;14.30;99.90;;;;;;5052695;28;20822;-60
2023/08/06 00:17:48;;;;;;;9.13;6.40;;;14.30;99.90;;;;;;5052513;28;20578;-59
2023/08/06 00:20:15;;;;;;;7.83;7.03;;;14.20;99.90;;;;;;5053003;28;20428;-60
2023/08/06 00:22:43;;;;;;;7.87;7.07;;;14.20;99.90;;;;;;5052767;28;20882;-60
2023/08/06 00:25:10;;;;;;;7.90;6.70;;;14.20;99.90;;;;;;5053255;28;20436;-60
2023/08/06 00:27:37;;;;;;;6.00;5.40;;;14.20;99.90;;;;;;5055045;28;20436;-60
2023/08/06 00:30:04;;;;;;;7.20;6.50;;;14.20;99.90;;;;;;5057352;28;20461;-60
2023/08/06 00:32:31;;;;;;;8.00;6.57;;;14.20;99.90;;;;;;5056977;28;20817;-59
2023/08/06 00:34:58;;;;;;;7.50;6.80;;;14.10;99.90;;;;;;5057448;28;20822;-60
2023/08/06 00:37:24;;;;;;;8.33;6.60;;;14.10;99.90;;;;;;5057272;28;20480;-61
2023/08/06 00:39:53;;;;;;;9.80;7.70;;;14.10;99.90;;;;;;5057150;28;20776;-61
2023/08/06 00:42:20;;;;;;;9.50;6.80;;;14.10;99.90;;;;;;5057469;28;20458;-60
2023/08/06 00:44:47;;;;;;;7.60;6.43;;;14.10;99.90;;;;;;5057587;28;20472;-60
2023/08/06 00:47:15;;;;;;;9.23;7.30;;;14.10;99.90;;;;;;5056783;28;20432;-60
2023/08/06 00:49:42;;;;;;;12.50;8.40;;;14.10;99.90;;;;;;5056680;28;20460;-61
2023/08/06 00:52:09;;;;;;;9.53;7.53;;;14.10;99.90;;;;;;5056376;28;20959;-60
2023/08/06 00:54:36;;;;;;;10.37;8.23;;;14.10;99.90;;;;;;5056411;28;20945;-60
2023/08/06 00:57:07;;;;;;;12.90;8.40;;;14.10;99.90;;;;;;5057191;28;20483;-61
2023/08/06 00:59:35;;;;;;;10.10;7.63;;;14.10;99.90;;;;;;5057066;28;20464;-59
2023/08/06 01:02:02;;;;;;;10.07;8.43;;;14.10;99.90;;;;;;5056920;28;20448;-61
2023/08/06 01:04:29;;;;;;;12.33;9.17;;;14.10;99.90;;;;;;5056802;28;20479;-61
2023/08/06 01:07:04;;;;;;;10.80;9.30;;;14.10;99.90;;;;;;5056547;28;20436;-61
2023/08/06 01:09:40;;;;;;;10.80;9.70;;;14.10;99.90;;;;;;5056468;28;20824;-61
2023/08/06 01:12:19;;;;;;;11.60;10.40;;;14.10;99.90;;;;;;5056296;28;20909;-60
2023/08/06 01:14:54;;;;;;;19.03;9.90;;;14.10;99.90;;;;;;5056487;28;20800;-61
2023/08/06 01:17:21;;;;;;;11.30;9.10;;;14.10;99.90;;;;;;5056448;28;20479;-60
2023/08/06 01:19:48;;;;;;;10.97;9.87;;;14.10;99.90;;;;;;5055808;28;20494;-60
2023/08/06 01:22:16;;;;;;;10.60;9.50;;;14.10;99.90;;;;;;5056164;28;20447;-60
2023/08/06 01:24:47;;;;;;;14.30;11.00;;;14.10;99.90;;;;;;5056080;28;20445;-59
2023/08/06 01:27:23;;;;;;;13.50;11.00;;;14.10;99.90;;;;;;5056279;28;20470;-61
2023/08/06 01:29:57;;;;;;;12.50;9.50;;;14.10;99.90;;;;;;5056073;28;20466;-61
2023/08/06 01:32:25;;;;;;;13.30;11.10;;;14.10;99.90;;;;;;5056205;28;20432;-60
2023/08/06 01:34:55;;;;;;;15.10;12.00;;;14.10;99.90;;;;;;5056036;28;20452;-60
2023/08/06 01:37:24;;;;;;;12.03;10.03;;;14.10;99.90;;;;;;5055744;28;20567;-60
2023/08/06 01:39:51;;;;;;;14.97;11.10;;;14.10;99.90;;;;;;5055338;28;20470;-61
2023/08/06 01:42:17;;;;;;;14.60;10.93;;;14.10;99.90;;;;;;5055511;28;20455;-60
2023/08/06 01:44:44;;;;;;;14.57;11.23;;;14.10;99.90;;;;;;5055722;28;20447;-60
2023/08/06 01:47:11;;;;;;;13.50;11.20;;;14.10;99.90;;;;;;5055554;28;20929;-60
2023/08/06 01:49:38;;;;;;;16.10;11.77;;;14.10;99.90;;;;;;5055242;28;20973;-60
2023/08/06 01:52:05;;;;;;;14.97;12.13;;;14.10;99.90;;;;;;5055427;28;20946;-60
2023/08/06 01:54:33;;;;;;;14.13;11.70;;;14.10;99.90;;;;;;5055817;28;20446;-60
2023/08/06 01:57:00;;;;;;;15.77;11.63;;;14.10;99.90;;;;;;5055578;28;20476;-60
2023/08/06 01:59:27;;;;;;;13.00;10.87;;;14.10;99.90;;;;;;5055465;28;20565;-61
2023/08/06 02:01:54;;;;;;;16.67;11.90;;;14.10;99.90;;;;;;5055968;28;20444;-60
2023/08/06 02:04:21;;;;;;;14.77;11.90;;;14.00;99.90;;;;;;5056739;28;20452;-60
2023/08/06 02:06:47;;;;;;;15.97;11.73;;;14.00;99.90;;;;;;5057888;28;20451;-60
2023/08/06 02:09:14;;;;;;;16.70;11.70;;;14.00;99.90;;;;;;5059595;28;20471;-60
2023/08/06 02:11:42;;;;;;;16.37;12.07;;;14.00;99.90;;;;;;5060767;28;20454;-61
2023/08/06 02:14:09;;;;;;;16.20;11.63;;;14.00;99.90;;;;;;5060512;28;20475;-61
2023/08/06 02:16:36;;;;;;;16.30;11.97;;;14.00;99.90;;;;;;5059843;28;20546;-60
2023/08/06 02:19:03;;;;;;;15.03;11.70;;;14.00;99.90;;;;;;5056777;28;20474;-60
2023/08/06 02:21:30;;;;;;;18.00;13.30;;;14.00;99.90;;;;;;5055804;28;20453;-60
2023/08/06 02:23:56;;;;;;;18.07;12.43;;;14.00;99.90;;;;;;5057163;28;20444;-60
2023/08/06 02:26:23;;;;;;;17.87;13.27;;;13.90;99.90;;;;;;5057166;28;20455;-60
2023/08/06 02:28:51;;;;;;;17.17;11.93;;;13.90;99.90;;;;;;5055822;28;20846;-58
2023/08/06 02:31:18;;;;;;;16.70;11.60;;;13.90;99.90;;;;;;5056272;28;20466;-59
2023/08/06 02:33:45;;;;;;;17.07;11.73;;;13.90;99.90;;;;;;5055400;28;20440;-59
2023/08/06 02:36:12;;;;;;;16.57;11.20;;;13.80;99.90;;;;;;5054786;28;20444;-59
2023/08/06 02:38:38;;;;;;;18.73;13.37;;;13.80;99.90;;;;;;5054377;28;20484;-58
2023/08/06 02:41:06;;;;;;;17.13;13.43;;;13.80;99.90;;;;;;5054547;28;20938;-60
2023/08/06 02:43:33;;;;;;;19.10;12.30;;;13.70;99.90;;;;;;5054391;28;20490;-60
2023/08/06 02:46:01;;;;;;;20.90;12.43;;;13.70;99.90;;;;;;5054513;28;20447;-59
2023/08/06 02:48:28;;;;;;;16.33;12.37;;;13.60;99.90;;;;;;5054005;28;20981;-58
2023/08/06 02:50:58;;;;;;;18.17;12.30;;;13.60;99.90;;;;;;5053484;28;20440;-59
2023/08/06 02:53:25;;;;;;;20.40;12.57;;;13.60;99.90;;;;;;5054175;28;20806;-60
2023/08/06 02:55:52;;;;;;;17.47;12.53;;;13.60;99.90;;;;;;5054359;28;20436;-60
2023/08/06 02:58:22;;;;;;;22.50;13.50;;;13.60;99.90;;;;;;5054052;28;20491;-58
2023/08/06 03:01:02;;;;;;;17.87;12.37;;;13.60;99.90;;;;;;5054036;28;20888;-60
2023/08/06 03:03:30;;;;;;;21.80;13.37;;;13.60;99.90;;;;;;5054152;28;20464;-60
2023/08/06 03:05:56;;;;;;;21.20;13.53;;;13.60;99.90;;;;;;5054025;28;20446;-61
2023/08/06 03:08:24;;;;;;;21.10;12.50;;;13.50;99.90;;;;;;5054018;28;20462;-61
2023/08/06 03:10:51;;;;;;;20.30;14.67;;;13.50;99.90;;;;;;5053946;28;20451;-60
2023/08/06 03:13:18;;;;;;;17.30;12.93;;;13.60;99.90;;;;;;5054057;28;20446;-60
2023/08/06 03:15:53;;;;;;;21.00;13.53;;;13.60;99.90;;;;;;5053838;28;20811;-60
2023/08/06 03:18:22;;;;;;;18.43;12.97;;;13.60;99.90;;;;;;5053486;28;20541;-59
2023/08/06 03:20:48;;;;;;;21.10;13.60;;;13.60;99.90;;;;;;5053545;28;20498;-59
2023/08/06 03:23:15;;;;;;;23.33;13.83;;;13.60;99.90;;;;;;5055049;28;20455;-59
2023/08/06 03:25:42;;;;;;;19.33;13.27;;;13.60;99.90;;;;;;5054109;28;20444;-59
2023/08/06 03:28:09;;;;;;;21.70;12.70;;;13.60;99.90;;;;;;5054026;28;20460;-59
2023/08/06 03:30:35;;;;;;;21.17;13.83;;;13.60;99.90;;;;;;5054204;28;20447;-58
2023/08/06 03:33:02;;;;;;;21.53;13.07;;;13.60;99.90;;;;;;5054031;28;20448;-59
2023/08/06 03:35:30;;;;;;;18.97;12.70;;;13.50;99.90;;;;;;5053927;28;20440;-59
2023/08/06 03:37:57;;;;;;;20.80;13.10;;;13.50;99.90;;;;;;5053750;28;20863;-59
2023/08/06 03:40:24;;;;;;;21.40;12.57;;;13.50;99.90;;;;;;5053735;28;20813;-60
2023/08/06 03:42:51;;;;;;;17.93;13.37;;;13.50;99.90;;;;;;5053763;28;20451;-59
2023/08/06 03:45:18;;;;;;;19.87;13.70;;;13.50;99.90;;;;;;5053573;28;20498;-59
2023/08/06 03:47:44;;;;;;;20.73;14.17;;;13.50;99.90;;;;;;5053373;28;20447;-60
2023/08/06 03:50:11;;;;;;;22.83;14.20;;;13.40;99.90;;;;;;5053717;28;20440;-59
2023/08/06 03:52:39;;;;;;;22.00;14.40;;;13.40;99.90;;;;;;5053196;28;20444;-60
2023/08/06 03:55:06;;;;;;;23.43;14.47;;;13.40;99.90;;;;;;5053275;28;20960;-61
2023/08/06 03:57:33;;;;;;;24.30;15.50;;;13.40;99.90;;;;;;5053233;28;20484;-58
2023/08/06 04:00:00;;;;;;;21.27;13.77;;;13.40;99.90;;;;;;5053446;28;20444;-59
2023/08/06 04:02:27;;;;;;;22.70;14.57;;;13.40;99.90;;;;;;5052941;28;20436;-60
2023/08/06 04:04:54;;;;;;;23.33;14.20;;;13.40;99.90;;;;;;5053153;28;20855;-60
2023/08/06 04:07:21;;;;;;;24.27;15.10;;;13.40;99.90;;;;;;5053059;28;20440;-60
2023/08/06 04:12:05;;;;;;;24.50;14.63;;;13.40;99.90;;;;;;5091266;28;20545;-60
2023/08/06 04:14:32;;;;;;;28.23;16.30;;;13.40;99.90;;;;;;5091042;28;20521;-61
2023/08/06 04:16:59;;;;;;;21.50;14.60;;;13.40;99.90;;;;;;5090610;28;20451;-61
2023/08/06 04:19:26;;;;;;;23.03;13.80;;;13.40;99.90;;;;;;5087746;22;20492;-60
2023/08/06 04:21:52;;;;;;;26.03;14.53;;;13.50;99.90;;;;;;5050299;28;20451;-60
2023/08/06 04:24:19;;;;;;;25.10;15.53;;;13.50;99.90;;;;;;5050182;28;20439;-60
2023/08/06 04:26:46;;;;;;;25.60;15.57;;;13.50;99.90;;;;;;5052463;28;20451;-61
2023/08/06 04:29:14;;;;;;;30.37;15.30;;;13.50;99.90;;;;;;5050183;28;20460;-60
2023/08/06 04:31:41;;;;;;;27.50;15.70;;;13.50;99.90;;;;;;5050086;28;20484;-60
2023/08/06 04:34:09;;;;;;;21.73;13.70;;;13.50;99.90;;;;;;5050005;28;20444;-61
2023/08/06 04:36:35;;;;;;;21.37;13.57;;;13.50;99.90;;;;;;5050686;28;20448;-60
2023/08/06 04:39:02;;;;;;;21.77;15.10;;;13.60;99.90;;;;;;5050038;28;20460;-60
2023/08/06 04:41:29;;;;;;;27.67;15.40;;;13.60;99.90;;;;;;5049977;28;20434;-60
2023/08/06 04:43:57;;;;;;;22.70;13.47;;;13.60;99.90;;;;;;5049935;28;20448;-60
2023/08/06 04:46:25;;;;;;;25.40;14.53;;;13.60;99.90;;;;;;5049965;28;20448;-60
2023/08/06 04:48:52;;;;;;;23.73;14.97;;;13.70;99.90;;;;;;5049800;28;20464;-60
2023/08/06 04:51:18;;;;;;;21.47;14.13;;;13.70;99.90;;;;;;5049903;28;20477;-60
2023/08/06 04:53:45;;;;;;;22.60;14.87;;;13.70;99.90;;;;;;5049862;28;20447;-60
2023/08/06 04:56:12;;;;;;;22.70;13.77;;;13.80;99.90;;;;;;5050212;28;20444;-61
2023/08/06 04:58:39;;;;;;;20.77;13.53;;;13.80;99.90;;;;;;5049795;28;20461;-61
2023/08/06 05:01:06;;;;;;;21.53;13.93;;;13.90;99.90;;;;;;5049019;28;20444;-61
2023/08/06 05:03:34;;;;;;;19.33;13.67;;;13.90;99.90;;;;;;5049797;28;20431;-61
2023/08/06 05:06:00;;;;;;;20.07;13.70;;;14.00;99.90;;;;;;5049278;28;20440;-62
2023/08/06 05:08:27;;;;;;;19.90;13.80;;;14.00;99.90;;;;;;5049262;28;20468;-61
2023/08/06 05:10:54;;;;;;;18.70;14.17;;;14.10;99.90;;;;;;5049471;28;20526;-61
2023/08/06 05:13:21;;;;;;;15.50;11.77;;;14.10;99.90;;;;;;5049540;28;20459;-61
2023/08/06 05:15:47;;;;;;;17.23;11.80;;;14.20;99.90;;;;;;5049466;28;20436;-61
2023/08/06 05:18:14;;;;;;;17.20;13.47;;;14.30;99.90;;;;;;5049129;28;20476;-61
2023/08/06 05:20:43;;;;;;;18.10;12.40;;;14.30;99.90;;;;;;5049023;28;20427;-61
2023/08/06 05:23:10;;;;;;;15.97;11.70;;;14.30;99.90;;;;;;5037283;28;20453;-61
2023/08/06 05:25:37;;;;;;;14.97;11.10;;;14.40;99.90;;;;;;5035648;28;20963;-61
2023/08/06 05:28:04;;;;;;;16.90;11.97;;;14.50;99.90;;;;;;5035757;28;20437;-61
2023/08/06 05:30:31;;;;;;;13.83;11.30;;;14.60;99.90;;;;;;5035771;28;20477;-61
2023/08/06 05:32:57;;;;;;;18.53;11.03;;;14.70;99.90;;;;;;5035695;28;20437;-60
2023/08/06 05:35:25;;;;;;;14.60;11.37;;;14.80;99.90;;;;;;5035382;28;20511;-59
2023/08/06 05:37:54;;;;;;;15.70;10.80;;;14.90;99.90;;;;;;5035529;28;20471;-59
2023/08/06 05:40:21;;;;;;;11.70;8.70;;;15.00;99.90;;;;;;5035562;28;20433;-60
2023/08/06 05:42:47;;;;;;;10.47;9.03;;;15.20;99.90;;;;;;5035492;28;20456;-61
2023/08/06 05:45:15;;;;;;;11.33;8.33;;;15.30;99.90;;;;;;5035366;28;20441;-60
2023/08/06 05:47:41;;;;;;;10.03;8.00;;;15.40;99.90;;;;;;5035174;28;20443;-60
2023/08/06 05:50:09;;;;;;;8.60;7.70;;;15.50;99.90;;;;;;5035323;28;20469;-61
2023/08/06 05:52:36;;;;;;;12.20;7.13;;;15.70;99.90;;;;;;5036738;28;20927;-61
2023/08/06 05:55:05;;;;;;;9.70;7.97;;;15.80;99.90;;;;;;5035776;28;20453;-61
2023/08/06 05:57:32;;;;;;;7.93;7.00;;;15.90;99.90;;;;;;5034695;28;20441;-61
2023/08/06 05:59:58;;;;;;;7.97;6.80;;;16.10;99.90;;;;;;5035326;28;20970;-60
2023/08/06 06:02:25;;;;;;;7.27;6.57;;;16.20;99.90;;;;;;5035537;28;20957;-61
2023/08/06 06:04:52;;;;;;;7.77;6.10;;;16.30;99.90;;;;;;5035747;28;20809;-61
2023/08/06 06:07:19;;;;;;;8.30;6.00;;;16.50;99.90;;;;;;5036004;28;20484;-61
2023/08/06 06:09:46;;;;;;;7.00;6.30;;;16.70;99.90;;;;;;5035631;28;20467;-60
2023/08/06 06:12:14;;;;;;;7.77;5.73;;;16.80;99.90;;;;;;5035288;28;20486;-60
2023/08/06 06:14:40;;;;;;;5.90;5.37;;;16.90;99.90;;;;;;5034963;28;20447;-60
2023/08/06 06:17:07;;;;;;;6.07;5.47;;;17.00;99.90;;;;;;5035293;28;20451;-60
2023/08/06 06:19:34;;;;;;;8.13;5.00;;;17.00;99.90;;;;;;5034871;28;20473;-60
2023/08/06 06:22:01;;;;;;;5.50;5.00;;;17.00;99.90;;;;;;5035362;28;20441;-62
2023/08/06 06:24:27;;;;;;;4.77;4.00;;;17.00;99.90;;;;;;5034844;28;20961;-61
2023/08/06 06:26:54;;;;;;;4.13;3.73;;;17.00;99.90;;;;;;5034759;28;20972;-61
2023/08/06 06:29:22;;;;;;;5.53;4.33;;;17.00;99.90;;;;;;5034672;28;20975;-61
2023/08/06 06:31:49;;;;;;;4.43;4.03;;;17.00;99.90;;;;;;5034816;28;20495;-61
2023/08/06 06:34:16;;;;;;;5.00;3.93;;;16.90;99.90;;;;;;5034764;28;20445;-62
2023/08/06 06:36:43;;;;;;;4.53;3.93;;;17.00;99.90;;;;;;5035188;28;20441;-62
2023/08/06 06:39:09;;;;;;;4.60;4.20;;;17.00;99.90;;;;;;5034600;28;20461;-60
2023/08/06 06:41:36;;;;;;;3.83;3.53;;;17.00;99.90;;;;;;5034463;28;20433;-62
2023/08/06 06:44:03;;;;;;;4.37;3.60;;;17.10;99.90;;;;;;5034255;28;20452;-61
2023/08/06 06:46:31;;;;;;;5.00;4.27;;;17.10;99.90;;;;;;5034400;28;20456;-61
2023/08/06 06:48:58;;;;;;;3.37;2.90;;;17.20;99.90;;;;;;5034367;28;20468;-60
2023/08/06 06:51:24;;;;;;;3.93;3.00;;;17.20;99.90;;;;;;5034057;28;20480;-61
2023/08/06 06:53:51;;;;;;;3.07;2.77;;;17.30;99.90;;;;;;5034251;28;20977;-61
2023/08/06 06:56:18;;;;;;;5.20;3.47;;;17.40;99.90;;;;;;5034331;28;20816;-61
2023/08/06 06:58:45;;;;;;;5.40;4.40;;;17.40;99.90;;;;;;5033812;28;20847;-62
2023/08/06 07:01:12;;;;;;;6.43;4.57;;;17.50;99.90;;;;;;5034077;28;20939;-61
2023/08/06 07:03:40;;;;;;;4.27;3.30;;;17.50;99.90;;;;;;5034258;28;20441;-61
2023/08/06 07:06:07;;;;;;;4.37;3.27;;;17.60;99.90;;;;;;5034454;28;20445;-60
2023/08/06 07:08:34;;;;;;;3.07;2.80;;;17.60;99.90;;;;;;5034336;28;20884;-60
2023/08/06 07:11:02;;;;;;;2.80;2.60;;;17.60;99.90;;;;;;5033853;28;20477;-60
2023/08/06 07:13:29;;;;;;;6.00;3.10;;;17.70;99.90;;;;;;5034794;28;20452;-61
2023/08/06 07:15:56;;;;;;;3.77;3.27;;;17.70;99.90;;;;;;5034163;28;20445;-59
2023/08/06 07:18:23;;;;;;;3.50;3.17;;;17.70;99.90;;;;;;5034447;28;20481;-60
2023/08/06 07:20:51;;;;;;;2.97;2.63;;;17.80;99.90;;;;;;5034362;28;20463;-60
2023/08/06 07:23:19;;;;;;;3.70;2.70;;;17.90;99.90;;;;;;5034140;28;20441;-60
2023/08/06 07:25:47;;;;;;;3.10;2.73;;;17.90;99.90;;;;;;5033938;28;20446;-61
2023/08/06 07:28:14;;;;;;;2.53;2.33;;;18.10;99.90;;;;;;5033980;28;20469;-60
2023/08/06 07:30:41;;;;;;;2.77;2.57;;;18.20;99.90;;;;;;5034332;28;20452;-62
2023/08/06 07:33:08;;;;;;;2.60;2.40;;;18.20;99.90;;;;;;5034523;28;20446;-61
2023/08/06 07:35:35;;;;;;;3.30;2.73;;;18.30;99.90;;;;;;5034176;28;20446;-62
2023/08/06 07:38:04;;;;;;;2.70;2.40;;;18.30;99.90;;;;;;5033957;28;20940;-61
2023/08/06 07:40:31;;;;;;;2.73;2.40;;;18.40;99.90;;;;;;5034577;28;20445;-62
2023/08/06 07:42:57;;;;;;;2.60;2.40;;;18.50;99.90;;;;;;5034403;28;20434;-61
2023/08/06 07:45:26;;;;;;;3.23;2.93;;;18.60;99.90;;;;;;5034140;28;20724;-61
2023/08/06 07:47:53;;;;;;;3.70;2.60;;;18.60;99.90;;;;;;5033687;28;20467;-61
2023/08/06 07:50:20;;;;;;;3.53;2.60;;;18.70;99.90;;;;;;5033663;28;20445;-61
2023/08/06 07:52:47;;;;;;;7.10;3.20;;;18.70;99.90;;;;;;5034879;28;20489;-60
2023/08/06 07:55:15;;;;;;;3.20;2.60;;;18.70;99.90;;;;;;5034198;28;20796;-62
2023/08/06 07:57:42;;;;;;;2.63;2.40;;;18.80;99.90;;;;;;5033538;28;20452;-62
2023/08/06 08:00:10;;;;;;;3.77;1.93;;;18.90;99.90;;;;;;5032990;28;20468;-61
2023/08/06 08:02:37;;;;;;;4.50;2.10;;;18.90;99.90;;;;;;5032848;28;20443;-61
2023/08/06 08:05:04;;;;;;;4.97;2.00;;;19.10;99.90;;;;;;5032913;28;20444;-61
2023/08/06 08:07:31;;;;;;;5.57;2.33;;;19.20;99.90;;;;;;5033036;28;20443;-61
2023/08/06 08:09:57;;;;;;;3.60;1.77;;;19.40;99.90;;;;;;5032923;28;20827;-61
2023/08/06 08:12:25;;;;;;;3.60;1.70;;;19.50;99.90;;;;;;5033522;28;20856;-62
2023/08/06 08:14:52;;;;;;;3.70;2.93;;;19.50;99.90;;;;;;5033749;28;20506;-59
2023/08/06 08:17:19;;;;;;;2.40;2.20;;;19.50;99.90;;;;;;5032850;28;20453;-59
2023/08/06 08:19:46;;;;;;;2.70;2.50;;;19.50;99.90;;;;;;5032866;28;20486;-62
2023/08/06 08:22:13;;;;;;;1.87;1.77;;;19.60;99.90;;;;;;5034062;28;20539;-62
2023/08/06 08:24:39;;;;;;;2.40;2.20;;;19.70;99.90;;;;;;5033266;28;20443;-61
2023/08/06 08:27:06;;;;;;;2.30;2.10;;;19.90;99.90;;;;;;5033043;28;20441;-60
2023/08/06 08:29:34;;;;;;;2.00;1.80;;;20.00;99.90;;;;;;5033653;28;20472;-61
2023/08/06 08:32:01;;;;;;;2.30;2.10;;;20.10;99.90;;;;;;5033003;28;20489;-63
2023/08/06 08:34:28;;;;;;;4.97;1.83;;;20.20;99.90;;;;;;5033039;28;20440;-61
2023/08/06 08:36:55;;;;;;;3.43;2.00;;;20.20;99.90;;;;;;5033494;28;20452;-61
2023/08/06 08:39:21;;;;;;;2.33;1.53;;;20.30;99.90;;;;;;5033518;28;20469;-61
2023/08/06 08:41:48;;;;;;;2.43;2.03;;;20.30;99.90;;;;;;5033174;28;20445;-61
2023/08/06 08:44:18;;;;;;;2.87;2.10;;;20.40;99.90;;;;;;5033497;28;20542;-60
2023/08/06 08:46:47;;;;;;;3.40;2.10;;;20.50;99.90;;;;;;5033170;28;20449;-61
2023/08/06 08:49:14;;;;;;;2.90;2.00;;;20.60;99.90;;;;;;5033282;28;20473;-62
2023/08/06 08:51:41;;;;;;;1.93;1.67;;;20.70;99.90;;;;;;5033289;28;20493;-62
2023/08/06 08:54:09;;;;;;;2.23;2.03;;;20.70;99.90;;;;;;5033355;28;20446;-63
2023/08/06 08:56:36;;;;;;;2.43;2.00;;;20.80;99.90;;;;;;5033976;28;20441;-61
2023/08/06 08:59:03;;;;;;;3.20;1.87;;;20.90;99.90;;;;;;5037032;28;20458;-61
2023/08/06 09:01:30;;;;;;;2.20;2.00;;;21.00;99.90;;;;;;5037748;28;20444;-61
2023/08/06 09:03:59;;;;;;;3.03;1.50;;;21.00;99.90;;;;;;5036756;28;20973;-61
2023/08/06 09:06:28;;;;;;;2.90;2.27;;;20.90;99.90;;;;;;5037277;28;20817;-62
2023/08/06 09:09:03;;;;;;;20.70;2.87;;;20.90;99.90;;;;;;5036772;28;20853;-61
2023/08/06 09:11:39;;;;;;;3.90;1.90;;;20.90;99.90;;;;;;5037324;28;20871;-62
2023/08/06 09:14:08;;;;;;;3.73;2.20;;;21.10;99.90;;;;;;5037833;28;20426;-61
2023/08/06 09:16:35;;;;;;;3.47;2.27;;;21.40;99.90;;;;;;5038713;28;20442;-62
2023/08/06 09:19:09;;;;;;;2.73;2.37;;;21.60;99.90;;;;;;5037674;28;20479;-62
2023/08/06 09:21:38;;;;;;;4.73;3.20;;;21.70;99.90;;;;;;5039062;28;20421;-61
2023/08/06 09:24:10;;;;;;;4.53;2.07;;;21.80;99.90;;;;;;5039419;28;20936;-61
2023/08/06 09:26:37;;;;;;;4.17;2.10;;;21.90;99.50;;;;;;5040736;28;20428;-62
2023/08/06 09:29:07;;;;;;;3.63;2.57;;;21.90;98.30;;;;;;5040582;28;20469;-62
2023/08/06 09:31:35;;;;;;;2.50;1.93;;;21.90;97.90;;;;;;5038596;28;20485;-62
2023/08/06 09:34:02;;;;;;;3.10;2.03;;;21.80;97.50;;;;;;5039213;28;20438;-62
2023/08/06 09:36:30;;;;;;;2.77;2.50;;;21.80;97.00;;;;;;5037622;28;20441;-63
2023/08/06 09:38:57;;;;;;;2.20;2.00;;;21.90;96.80;;;;;;5037883;28;20478;-62
2023/08/06 09:41:28;;;;;;;2.57;2.37;;;22.00;96.40;;;;;;5038689;28;20445;-62
2023/08/06 09:43:55;;;;;;;3.07;2.77;;;22.30;95.60;;;;;;5040246;28;20435;-62
2023/08/06 09:46:22;;;;;;;6.53;2.27;;;22.50;94.50;;;;;;5044970;28;21019;-62
2023/08/06 09:48:51;;;;;;;3.13;2.40;;;22.70;93.20;;;;;;5044263;28;20474;-62
2023/08/06 09:51:18;;;;;;;2.57;2.03;;;22.80;91.40;;;;;;5038773;28;20455;-63
2023/08/06 09:53:48;;;;;;;2.23;2.03;;;22.80;90.60;;;;;;5037632;28;20566;-62
2023/08/06 09:56:18;;;;;;;2.03;1.90;;;23.10;89.90;;;;;;5037202;28;20447;-62
2023/08/06 09:58:48;;;;;;;3.00;2.00;;;23.30;87.70;;;;;;5036733;28;20473;-60
2023/08/06 10:01:16;;;;;;;2.47;2.27;;;23.50;85.00;;;;;;5036775;28;20473;-62
2023/08/06 10:03:44;;;;;;;2.00;1.90;;;23.70;82.50;;;;;;5036920;28;20444;-62
2023/08/06 10:06:12;;;;;;;2.80;2.20;;;23.60;80.80;;;;;;5036159;28;20440;-61
2023/08/06 10:08:40;;;;;;;2.67;2.47;;;23.60;79.00;;;;;;5036488;28;20471;-62
2023/08/06 10:11:10;;;;;;;4.27;2.30;;;23.50;77.70;;;;;;5036576;28;20817;-62
2023/08/06 10:13:38;;;;;;;2.20;2.00;;;23.50;76.50;;;;;;5036514;28;21003;-63
2023/08/06 10:16:06;;;;;;;2.50;1.97;;;23.50;75.00;;;;;;5037239;28;20481;-63
2023/08/06 10:18:33;;;;;;;2.20;2.00;;;23.50;74.10;;;;;;5041562;28;20594;-63
2023/08/06 10:21:02;;;;;;;2.43;2.20;;;23.60;73.40;;;;;;5039228;28;20539;-59
2023/08/06 10:23:35;;;;;;;2.60;2.40;;;23.60;72.80;;;;;;5037929;28;20443;-61
2023/08/06 10:26:02;;;;;;;2.70;2.20;;;23.50;72.80;;;;;;5037094;28;20429;-62
2023/08/06 10:28:37;;;;;;;2.37;2.10;;;23.50;72.60;;;;;;5038529;28;20488;-61
2023/08/06 10:31:05;;;;;;;2.90;2.00;;;23.50;72.40;;;;;;5036994;28;20798;-62
2023/08/06 10:33:43;;;;;;;2.90;1.83;;;23.60;72.30;;;;;;5037165;28;20488;-61
2023/08/06 10:36:10;;;;;;;3.60;2.33;;;23.80;72.00;;;;;;5037244;28;20506;-63
2023/08/06 10:38:45;;;;;;;3.23;2.53;;;23.90;71.30;;;;;;5035410;28;20472;-61
2023/08/06 10:41:17;;;;;;;2.73;2.30;;;24.00;70.40;;;;;;5035477;28;20473;-62
2023/08/06 10:43:48;;;;;;;4.13;2.30;;;24.00;69.80;;;;;;5035683;28;20427;-62
2023/08/06 10:46:24;;;;;;;2.43;2.23;;;24.10;68.80;;;;;;5035900;28;20425;-61
2023/08/06 10:48:51;;;;;;;3.50;2.33;;;23.90;67.30;;;;;;5036055;28;21009;-62
2023/08/06 10:51:18;;;;;;;5.87;4.77;;;23.70;67.50;;;;;;5036549;28;20447;-63
2023/08/06 10:53:46;;;;;;;2.50;2.30;;;23.50;67.70;;;;;;5034823;28;20854;-61
2023/08/06 10:56:14;;;;;;;3.63;3.23;;;23.50;67.80;;;;;;5035654;28;20545;-62
2023/08/06 10:58:41;;;;;;;3.23;2.53;;;23.60;66.90;;;;;;5034710;28;20461;-62
2023/08/06 11:01:10;;;;;;;3.13;2.83;;;23.80;66.60;;;;;;5035220;28;20807;-62
2023/08/06 11:03:37;;;;;;;2.40;2.20;;;24.10;65.30;;;;;;5035212;28;20927;-62
2023/08/06 11:06:05;;;;;;;2.50;2.30;;;24.20;63.90;;;;;;5035311;28;20452;-63
2023/08/06 11:08:35;;;;;;;2.63;2.43;;;24.40;62.90;;;;;;5034407;28;20900;-62
2023/08/06 11:11:10;;;;;;;6.27;2.80;;;24.40;62.50;;;;;;5035691;28;20437;-63
2023/08/06 11:13:37;;;;;;;2.60;2.40;;;24.50;62.10;;;;;;5035070;28;20476;-61
2023/08/06 11:16:05;;;;;;;2.50;2.30;;;24.50;61.60;;;;;;5035040;28;20452;-62
2023/08/06 11:18:33;;;;;;;2.20;1.90;;;24.50;61.10;;;;;;5034804;28;20478;-62
2023/08/06 11:21:01;;;;;;;4.27;2.60;;;24.40;60.80;;;;;;5035086;28;20450;-63
2023/08/06 11:23:29;;;;;;;2.13;2.00;;;24.30;60.70;;;;;;5034557;28;20923;-61
2023/08/06 11:25:56;;;;;;;2.37;2.17;;;24.30;60.30;;;;;;5034717;28;20442;-61
2023/08/06 11:28:22;;;;;;;2.27;2.00;;;24.40;59.30;;;;;;5034789;28;20982;-60
2023/08/06 11:30:49;;;;;;;2.20;2.00;;;24.60;58.30;;;;;;5034841;28;20451;-62
2023/08/06 11:33:22;;;;;;;2.80;1.90;;;24.80;57.50;;;;;;5035226;28;20531;-63
2023/08/06 11:35:50;;;;;;;2.80;2.60;;;24.70;57.00;;;;;;5034806;28;20423;-61
2023/08/06 11:38:18;;;;;;;2.60;2.20;;;24.60;57.80;;;;;;5034681;28;20470;-61
2023/08/06 11:40:45;;;;;;;2.30;2.10;;;24.50;58.60;;;;;;5034562;28;20449;-62
2023/08/06 11:43:12;;;;;;;3.40;2.30;;;24.70;59.00;;;;;;5034518;28;20948;-64
2023/08/06 11:45:39;;;;;;;2.20;2.00;;;24.80;58.70;;;;;;5034919;28;20456;-62
2023/08/06 11:48:08;;;;;;;2.80;1.80;;;24.70;58.50;;;;;;5034417;28;20514;-63
2023/08/06 11:50:38;;;;;;;2.00;1.90;;;24.60;58.40;;;;;;5034946;28;20480;-61
2023/08/06 11:53:07;;;;;;;4.03;2.07;;;24.40;58.40;;;;;;5034439;28;20834;-62
2023/08/06 11:55:34;;;;;;;1.60;1.50;;;24.30;58.50;;;;;;5034280;28;20450;-62
2023/08/06 11:58:04;;;;;;;2.37;2.10;;;24.30;58.50;;;;;;5033830;28;20535;-61
2023/08/06 12:00:31;;;;;;;3.37;2.37;;;24.30;58.60;;;;;;5034164;28;20467;-63
2023/08/06 12:02:58;;;;;;;3.70;2.33;;;24.30;58.70;;;;;;5034595;28;20430;-62
2023/08/06 12:05:31;;;;;;;2.63;2.20;;;24.30;58.60;;;;;;5034216;28;20446;-62
2023/08/06 12:07:59;;;;;;;2.50;2.17;;;24.90;57.70;;;;;;5034174;28;20431;-61
2023/08/06 12:10:28;;;;;;;2.50;2.30;;;25.70;55.80;;;;;;5033898;28;20439;-63
2023/08/06 12:12:56;;;;;;;2.37;2.13;;;26.60;54.10;;;;;;5034501;28;20489;-63
2023/08/06 12:15:23;;;;;;;3.00;2.20;;;27.50;52.30;;;;;;5034198;28;20445;-62
2023/08/06 12:17:50;;;;;;;2.83;2.63;;;27.90;50.40;;;;;;5034071;28;20450;-61
2023/08/06 12:20:17;;;;;;;3.03;2.40;;;28.00;49.70;;;;;;5034937;28;20465;-63
2023/08/06 12:22:45;;;;;;;3.70;2.50;;;28.00;49.40;;;;;;5034632;28;20546;-62
2023/08/06 12:25:13;;;;;;;3.13;2.87;;;27.90;49.30;;;;;;5033772;28;21009;-60
2023/08/06 12:27:43;;;;;;;2.63;2.43;;;27.70;49.20;;;;;;5034101;28;20444;-62
2023/08/06 12:30:10;;;;;;;2.33;2.13;;;27.60;49.90;;;;;;5034218;28;20468;-62
2023/08/06 12:32:38;;;;;;;2.67;2.20;;;27.70;49.90;;;;;;5035453;28;21047;-63
2023/08/06 12:35:07;;;;;;;2.07;1.87;;;27.70;49.40;;;;;;5038404;28;20802;-62
2023/08/06 12:37:34;;;;;;;2.47;2.10;;;27.40;49.50;;;;;;5039137;28;20447;-61
2023/08/06 12:40:01;;;;;;;2.50;2.00;;;26.90;50.00;;;;;;5038583;28;20508;-62
2023/08/06 12:42:27;;;;;;;2.83;2.40;;;26.30;50.50;;;;;;5037995;28;20471;-60
2023/08/06 12:44:56;;;;;;;3.80;2.13;;;25.80;51.50;;;;;;5037534;28;20513;-60